Pacifica, California
Current Conditions -  °F | °C
As of 12:56 AM on Saturday 22 Nov 2014 (Local Time) from KSFO Reporting Station
Overcast Overcast  
Wind Chill: 61°   Ceiling: 4400
Heat Index: 61°   Visibility: 10mi
Dew Point: 55°   Wind: 7mph
Humidity: 81%   Direction: 160°SSE
Pressure: 30.12"   Gusts: NA
Location:  37.64°N, 122.49°W
Report Text: KSFO 220856Z 16006KT 10SM FEW034 OVC044 16/13 A3012 RMK AO2 SLP198 T01610128 50000
Loading
Personal Weather Stations






























Interactive Weather Map New forecast layout! Learn more

10-Day Weather Forecast

Advertisements
Track Severe Weather on mobile